sensor_id;sensor_type;location;lat;lon;timestamp;pressure;altitude;pressure_sealevel;temperature;humidity
52591;BME280;38483;42.620;25.394;2023-03-31T00:00:53;97049.69;;;9.75;40.84
52591;BME280;38483;42.620;25.394;2023-03-31T00:03:23;97057.69;;;9.70;40.75
52591;BME280;38483;42.620;25.394;2023-03-31T00:05:55;97067.38;;;9.65;40.88
52591;BME280;38483;42.620;25.394;2023-03-31T00:08:28;97058.75;;;9.45;41.73
52591;BME280;38483;42.620;25.394;2023-03-31T00:11:03;97057.03;;;9.44;41.25
52591;BME280;38483;42.620;25.394;2023-03-31T00:13:30;97061.25;;;9.46;41.53
52591;BME280;38483;42.620;25.394;2023-03-31T00:16:04;97055.31;;;9.44;41.05
52591;BME280;38483;42.620;25.394;2023-03-31T00:18:32;97067.28;;;9.47;41.58
52591;BME280;38483;42.620;25.394;2023-03-31T00:21:12;97066.94;;;9.54;41.65
52591;BME280;38483;42.620;25.394;2023-03-31T00:23:59;97057.19;;;9.41;41.67
52591;BME280;38483;42.620;25.394;2023-03-31T00:26:26;97052.03;;;9.41;41.97
52591;BME280;38483;42.620;25.394;2023-03-31T00:28:54;97063.31;;;9.38;41.55
52591;BME280;38483;42.620;25.394;2023-03-31T00:31:22;97056.59;;;9.34;41.97
52591;BME280;38483;42.620;25.394;2023-03-31T00:33:50;97063.09;;;9.01;43.44
52591;BME280;38483;42.620;25.394;2023-03-31T00:36:17;97052.13;;;8.96;43.67
52591;BME280;38483;42.620;25.394;2023-03-31T00:38:47;97040.03;;;8.75;43.79
52591;BME280;38483;42.620;25.394;2023-03-31T00:41:14;97034.59;;;9.04;43.38
52591;BME280;38483;42.620;25.394;2023-03-31T00:46:30;97025.97;;;9.25;43.24
52591;BME280;38483;42.620;25.394;2023-03-31T00:48:59;97021.38;;;8.90;43.39
52591;BME280;38483;42.620;25.394;2023-03-31T00:51:30;97035.22;;;8.66;44.46
52591;BME280;38483;42.620;25.394;2023-03-31T00:54:02;97017.25;;;8.41;44.47
52591;BME280;38483;42.620;25.394;2023-03-31T00:56:34;97008.25;;;8.30;45.53
52591;BME280;38483;42.620;25.394;2023-03-31T00:59:05;96994.63;;;8.26;46.77
52591;BME280;38483;42.620;25.394;2023-03-31T01:01:33;97009.44;;;8.19;46.45
52591;BME280;38483;42.620;25.394;2023-03-31T01:04:03;96986.69;;;8.31;45.86
52591;BME280;38483;42.620;25.394;2023-03-31T01:06:31;96985.81;;;8.32;46.54
52591;BME280;38483;42.620;25.394;2023-03-31T01:08:59;96995.97;;;8.58;45.53
52591;BME280;38483;42.620;25.394;2023-03-31T01:11:30;96987.31;;;8.80;45.83
52591;BME280;38483;42.620;25.394;2023-03-31T01:13:57;96994.41;;;8.75;46.36
52591;BME280;38483;42.620;25.394;2023-03-31T01:16:24;96990.22;;;8.73;46.50
52591;BME280;38483;42.620;25.394;2023-03-31T01:18:52;96985.66;;;8.79;46.00
52591;BME280;38483;42.620;25.394;2023-03-31T01:27:46;96978.97;;;8.74;46.24
52591;BME280;38483;42.620;25.394;2023-03-31T01:31:06;96976.75;;;8.65;46.42
52591;BME280;38483;42.620;25.394;2023-03-31T01:34:25;96967.50;;;8.81;46.28
52591;BME280;38483;42.620;25.394;2023-03-31T01:37:08;96974.13;;;8.88;46.26
52591;BME280;38483;42.620;25.394;2023-03-31T01:42:58;96953.22;;;8.94;46.61
52591;BME280;38483;42.620;25.394;2023-03-31T01:48:19;96960.88;;;8.95;46.69
52591;BME280;38483;42.620;25.394;2023-03-31T01:50:56;96948.44;;;9.05;46.45
52591;BME280;38483;42.620;25.394;2023-03-31T01:53:42;96939.13;;;9.01;45.52
52591;BME280;38483;42.620;25.394;2023-03-31T01:56:24;96932.75;;;8.89;45.45
52591;BME280;38483;42.620;25.394;2023-03-31T01:59:19;96944.38;;;8.99;45.64
52591;BME280;38483;42.620;25.394;2023-03-31T02:04:22;96942.75;;;8.97;44.61
52591;BME280;38483;42.620;25.394;2023-03-31T02:06:58;96936.28;;;8.87;45.56
52591;BME280;38483;42.620;25.394;2023-03-31T02:09:31;96934.66;;;8.84;45.61
52591;BME280;38483;42.620;25.394;2023-03-31T02:12:03;96916.06;;;8.76;46.76
52591;BME280;38483;42.620;25.394;2023-03-31T02:14:34;96920.47;;;8.53;47.16
52591;BME280;38483;42.620;25.394;2023-03-31T02:17:03;96930.13;;;8.24;48.96
52591;BME280;38483;42.620;25.394;2023-03-31T02:19:34;96928.81;;;7.91;48.83
52591;BME280;38483;42.620;25.394;2023-03-31T02:22:06;96919.19;;;7.96;48.93
52591;BME280;38483;42.620;25.394;2023-03-31T02:24:35;96911.13;;;7.82;48.61
52591;BME280;38483;42.620;25.394;2023-03-31T02:27:30;96918.53;;;7.68;49.49
52591;BME280;38483;42.620;25.394;2023-03-31T02:30:00;96915.41;;;7.60;50.37
52591;BME280;38483;42.620;25.394;2023-03-31T02:32:32;96909.63;;;7.54;51.49
52591;BME280;38483;42.620;25.394;2023-03-31T02:35:02;96911.25;;;7.56;49.21
52591;BME280;38483;42.620;25.394;2023-03-31T02:37:29;96909.72;;;7.51;50.98
52591;BME280;38483;42.620;25.394;2023-03-31T02:39:59;96911.41;;;7.52;50.12
52591;BME280;38483;42.620;25.394;2023-03-31T02:42:28;96905.28;;;7.31;50.19
52591;BME280;38483;42.620;25.394;2023-03-31T02:45:02;96922.56;;;7.52;49.29
52591;BME280;38483;42.620;25.394;2023-03-31T02:47:29;96931.19;;;7.51;51.32
52591;BME280;38483;42.620;25.394;2023-03-31T02:49:58;96928.75;;;7.47;50.64
52591;BME280;38483;42.620;25.394;2023-03-31T03:01:14;96904.72;;;7.92;50.18
52591;BME280;38483;42.620;25.394;2023-03-31T03:07:31;96889.00;;;8.21;49.68
52591;BME280;38483;42.620;25.394;2023-03-31T03:10:10;96889.00;;;8.21;49.13
52591;BME280;38483;42.620;25.394;2023-03-31T03:15:31;96900.59;;;8.33;49.70
52591;BME280;38483;42.620;25.394;2023-03-31T03:18:00;96913.00;;;8.45;48.82
52591;BME280;38483;42.620;25.394;2023-03-31T03:20:30;96902.69;;;8.45;48.53
52591;BME280;38483;42.620;25.394;2023-03-31T03:22:59;96916.38;;;8.47;48.90
52591;BME280;38483;42.620;25.394;2023-03-31T03:25:26;96915.16;;;8.56;48.64
52591;BME280;38483;42.620;25.394;2023-03-31T03:27:56;96895.78;;;8.46;49.10
52591;BME280;38483;42.620;25.394;2023-03-31T03:30:22;96901.50;;;8.32;49.21
52591;BME280;38483;42.620;25.394;2023-03-31T03:32:49;96904.72;;;8.15;49.67
52591;BME280;38483;42.620;25.394;2023-03-31T03:35:16;96884.31;;;8.09;49.39
52591;BME280;38483;42.620;25.394;2023-03-31T03:37:43;96908.25;;;8.13;49.50
52591;BME280;38483;42.620;25.394;2023-03-31T03:40:11;96916.81;;;8.13;50.40
52591;BME280;38483;42.620;25.394;2023-03-31T03:42:38;96908.16;;;8.14;49.85
52591;BME280;38483;42.620;25.394;2023-03-31T03:45:05;96907.69;;;8.05;50.61
52591;BME280;38483;42.620;25.394;2023-03-31T03:47:35;96915.94;;;7.91;50.72
52591;BME280;38483;42.620;25.394;2023-03-31T03:50:06;96916.38;;;7.79;51.56
52591;BME280;38483;42.620;25.394;2023-03-31T03:52:33;96874.97;;;7.61;52.39
52591;BME280;38483;42.620;25.394;2023-03-31T03:55:00;96919.16;;;7.75;52.10
52591;BME280;38483;42.620;25.394;2023-03-31T03:57:28;96908.69;;;7.56;53.32
52591;BME280;38483;42.620;25.394;2023-03-31T03:59:56;96916.81;;;7.44;53.08
52591;BME280;38483;42.620;25.394;2023-03-31T04:02:23;96903.66;;;7.28;53.44
52591;BME280;38483;42.620;25.394;2023-03-31T04:04:53;96909.88;;;7.46;53.84
52591;BME280;38483;42.620;25.394;2023-03-31T04:07:20;96900.19;;;7.53;52.98
52591;BME280;38483;42.620;25.394;2023-03-31T04:09:47;96908.47;;;7.61;52.81
52591;BME280;38483;42.620;25.394;2023-03-31T04:12:14;96901.50;;;7.64;53.40
52591;BME280;38483;42.620;25.394;2023-03-31T04:14:41;96916.63;;;7.73;52.82
52591;BME280;38483;42.620;25.394;2023-03-31T04:17:08;96913.31;;;7.70;53.13
52591;BME280;38483;42.620;25.394;2023-03-31T04:19:36;96851.75;;;7.39;52.68
52591;BME280;38483;42.620;25.394;2023-03-31T04:22:04;96901.00;;;7.78;52.05
52591;BME280;38483;42.620;25.394;2023-03-31T04:24:31;96903.34;;;7.84;52.10
52591;BME280;38483;42.620;25.394;2023-03-31T04:26:59;96886.53;;;7.74;51.68
52591;BME280;38483;42.620;25.394;2023-03-31T04:29:26;96910.56;;;7.97;51.27
52591;BME280;38483;42.620;25.394;2023-03-31T04:31:54;96901.69;;;8.04;52.70
52591;BME280;38483;42.620;25.394;2023-03-31T04:34:26;96889.94;;;7.97;52.30
52591;BME280;38483;42.620;25.394;2023-03-31T04:37:01;96890.16;;;7.91;52.57
52591;BME280;38483;42.620;25.394;2023-03-31T04:39:29;96882.31;;;7.48;53.59
52591;BME280;38483;42.620;25.394;2023-03-31T04:41:59;96897.44;;;7.34;55.07
52591;BME280;38483;42.620;25.394;2023-03-31T04:44:27;96894.59;;;7.42;55.25
52591;BME280;38483;42.620;25.394;2023-03-31T04:46:54;96900.56;;;7.42;54.44
52591;BME280;38483;42.620;25.394;2023-03-31T04:49:21;96903.28;;;7.39;54.87
52591;BME280;38483;42.620;25.394;2023-03-31T04:51:48;96898.53;;;7.52;54.44
52591;BME280;38483;42.620;25.394;2023-03-31T04:54:15;96906.09;;;7.56;53.12
52591;BME280;38483;42.620;25.394;2023-03-31T04:56:42;96907.16;;;7.74;53.85
52591;BME280;38483;42.620;25.394;2023-03-31T04:59:09;96896.94;;;7.71;52.55
52591;BME280;38483;42.620;25.394;2023-03-31T05:01:36;96886.31;;;7.80;52.47
52591;BME280;38483;42.620;25.394;2023-03-31T05:04:07;96881.38;;;7.74;51.63
52591;BME280;38483;42.620;25.394;2023-03-31T05:06:34;96883.25;;;7.70;53.58
52591;BME280;38483;42.620;25.394;2023-03-31T05:09:01;96892.47;;;7.53;53.00
52591;BME280;38483;42.620;25.394;2023-03-31T05:11:28;96849.06;;;7.42;53.50
52591;BME280;38483;42.620;25.394;2023-03-31T05:13:55;96881.75;;;7.86;51.87
52591;BME280;38483;42.620;25.394;2023-03-31T05:16:22;96844.59;;;7.70;51.67
52591;BME280;38483;42.620;25.394;2023-03-31T05:18:49;96874.91;;;7.85;51.79
52591;BME280;38483;42.620;25.394;2023-03-31T05:21:18;96862.66;;;7.69;51.43
52591;BME280;38483;42.620;25.394;2023-03-31T05:23:46;96853.19;;;7.69;51.33
52591;BME280;38483;42.620;25.394;2023-03-31T05:26:13;96866.88;;;7.71;51.20
52591;BME280;38483;42.620;25.394;2023-03-31T05:28:41;96866.88;;;7.71;49.87
52591;BME280;38483;42.620;25.394;2023-03-31T05:31:09;96855.28;;;7.60;49.30
52591;BME280;38483;42.620;25.394;2023-03-31T05:33:37;96865.84;;;7.75;49.56
52591;BME280;38483;42.620;25.394;2023-03-31T05:36:10;96865.03;;;7.96;49.20
52591;BME280;38483;42.620;25.394;2023-03-31T05:38:38;96811.22;;;7.89;48.34
52591;BME280;38483;42.620;25.394;2023-03-31T05:41:05;96814.25;;;7.98;49.09
52591;BME280;38483;42.620;25.394;2023-03-31T05:43:33;96853.13;;;8.15;49.11
52591;BME280;38483;42.620;25.394;2023-03-31T05:46:00;96846.78;;;8.24;48.91
52591;BME280;38483;42.620;25.394;2023-03-31T05:48:27;96847.97;;;8.15;49.18
52591;BME280;38483;42.620;25.394;2023-03-31T05:50:58;96835.69;;;8.22;47.88
52591;BME280;38483;42.620;25.394;2023-03-31T05:53:26;96837.59;;;8.17;47.60
52591;BME280;38483;42.620;25.394;2023-03-31T05:56:01;96853.38;;;8.09;48.32
52591;BME280;38483;42.620;25.394;2023-03-31T05:58:29;96849.63;;;8.16;48.77
52591;BME280;38483;42.620;25.394;2023-03-31T06:01:03;96866.94;;;8.36;47.44
52591;BME280;38483;42.620;25.394;2023-03-31T06:03:36;96858.72;;;8.48;47.79
52591;BME280;38483;42.620;25.394;2023-03-31T06:06:04;96859.94;;;8.60;47.34
52591;BME280;38483;42.620;25.394;2023-03-31T06:08:32;96875.25;;;8.64;47.92
52591;BME280;38483;42.620;25.394;2023-03-31T06:10:59;96868.69;;;8.77;47.47
52591;BME280;38483;42.620;25.394;2023-03-31T06:13:26;96862.69;;;8.77;47.43
52591;BME280;38483;42.620;25.394;2023-03-31T06:15:55;96851.13;;;8.85;46.80
52591;BME280;38483;42.620;25.394;2023-03-31T06:18:22;96861.13;;;8.93;47.17
52591;BME280;38483;42.620;25.394;2023-03-31T06:20:50;96830.47;;;8.65;47.03
52591;BME280;38483;42.620;25.394;2023-03-31T06:23:17;96851.41;;;8.79;47.95
52591;BME280;38483;42.620;25.394;2023-03-31T06:25:44;96858.81;;;8.87;47.06
52591;BME280;38483;42.620;25.394;2023-03-31T06:28:19;96843.38;;;8.85;46.11
52591;BME280;38483;42.620;25.394;2023-03-31T06:30:46;96857.25;;;8.83;46.84
52591;BME280;38483;42.620;25.394;2023-03-31T06:33:13;96850.19;;;8.88;46.42
52591;BME280;38483;42.620;25.394;2023-03-31T06:35:40;96853.31;;;8.74;45.88
52591;BME280;38483;42.620;25.394;2023-03-31T06:38:07;96850.09;;;8.69;45.89
52591;BME280;38483;42.620;25.394;2023-03-31T06:40:34;96840.91;;;8.62;45.39
52591;BME280;38483;42.620;25.394;2023-03-31T06:43:02;96843.69;;;8.78;46.25
52591;BME280;38483;42.620;25.394;2023-03-31T06:45:29;96811.50;;;8.66;45.38
52591;BME280;38483;42.620;25.394;2023-03-31T06:47:56;96834.84;;;9.03;44.61
52591;BME280;38483;42.620;25.394;2023-03-31T06:50:23;96836.22;;;9.12;43.94
52591;BME280;38483;42.620;25.394;2023-03-31T06:52:50;96828.97;;;9.20;43.49
52591;BME280;38483;42.620;25.394;2023-03-31T06:55:18;96830.69;;;9.20;43.87
52591;BME280;38483;42.620;25.394;2023-03-31T06:57:45;96827.91;;;9.24;44.02
52591;BME280;38483;42.620;25.394;2023-03-31T07:00:13;96846.13;;;9.41;44.23
52591;BME280;38483;42.620;25.394;2023-03-31T07:02:40;96838.63;;;9.35;44.21
52591;BME280;38483;42.620;25.394;2023-03-31T07:05:07;96845.19;;;9.42;44.63
52591;BME280;38483;42.620;25.394;2023-03-31T07:07:34;96837.94;;;9.50;43.90
52591;BME280;38483;42.620;25.394;2023-03-31T07:10:01;96837.59;;;9.58;43.45
52591;BME280;38483;42.620;25.394;2023-03-31T07:12:32;96843.47;;;9.61;42.94
52591;BME280;38483;42.620;25.394;2023-03-31T07:14:59;96816.22;;;9.54;42.79
52591;BME280;38483;42.620;25.394;2023-03-31T07:17:26;96838.88;;;9.68;42.48
52591;BME280;38483;42.620;25.394;2023-03-31T07:19:53;96837.63;;;9.76;42.30
52591;BME280;38483;42.620;25.394;2023-03-31T07:22:20;96832.28;;;9.79;43.04
52591;BME280;38483;42.620;25.394;2023-03-31T07:24:47;96833.81;;;9.83;43.35
52591;BME280;38483;42.620;25.394;2023-03-31T07:27:14;96829.13;;;9.73;44.20
52591;BME280;38483;42.620;25.394;2023-03-31T07:29:41;96838.72;;;9.71;44.22
52591;BME280;38483;42.620;25.394;2023-03-31T07:32:08;96833.53;;;9.71;44.12
52591;BME280;38483;42.620;25.394;2023-03-31T07:34:35;96803.66;;;9.65;43.53
52591;BME280;38483;42.620;25.394;2023-03-31T07:37:03;96813.56;;;9.74;43.89
52591;BME280;38483;42.620;25.394;2023-03-31T07:39:31;96826.13;;;9.82;44.03
52591;BME280;38483;42.620;25.394;2023-03-31T07:41:58;96827.69;;;9.86;43.37
52591;BME280;38483;42.620;25.394;2023-03-31T07:44:26;96814.84;;;10.02;43.42
52591;BME280;38483;42.620;25.394;2023-03-31T07:46:53;96812.78;;;10.10;43.05
52591;BME280;38483;42.620;25.394;2023-03-31T07:49:20;96789.72;;;9.87;42.55
52591;BME280;38483;42.620;25.394;2023-03-31T07:51:47;96788.22;;;10.00;43.33
52591;BME280;38483;42.620;25.394;2023-03-31T07:54:14;96797.75;;;10.18;43.55
52591;BME280;38483;42.620;25.394;2023-03-31T07:56:41;96795.25;;;10.33;43.20
52591;BME280;38483;42.620;25.394;2023-03-31T07:59:08;96807.97;;;10.38;43.09
52591;BME280;38483;42.620;25.394;2023-03-31T08:01:35;96799.22;;;10.40;43.05
52591;BME280;38483;42.620;25.394;2023-03-31T08:04:03;96794.56;;;10.64;43.33
52591;BME280;38483;42.620;25.394;2023-03-31T08:06:30;96786.78;;;10.81;43.69
52591;BME280;38483;42.620;25.394;2023-03-31T08:08:57;96774.63;;;11.16;42.97
52591;BME280;38483;42.620;25.394;2023-03-31T08:11:25;96767.72;;;10.99;43.93
52591;BME280;38483;42.620;25.394;2023-03-31T08:13:52;96759.97;;;11.15;43.41
52591;BME280;38483;42.620;25.394;2023-03-31T08:16:19;96771.16;;;10.83;43.65
52591;BME280;38483;42.620;25.394;2023-03-31T08:18:46;96774.47;;;10.69;42.71
52591;BME280;38483;42.620;25.394;2023-03-31T08:21:13;96761.75;;;10.82;42.73
52591;BME280;38483;42.620;25.394;2023-03-31T08:23:40;96772.38;;;10.93;42.33
52591;BME280;38483;42.620;25.394;2023-03-31T08:26:12;96788.91;;;10.90;42.97
52591;BME280;38483;42.620;25.394;2023-03-31T08:28:44;96769.91;;;11.07;43.94
52591;BME280;38483;42.620;25.394;2023-03-31T08:31:11;96752.81;;;11.20;42.66
52591;BME280;38483;42.620;25.394;2023-03-31T08:33:42;96691.78;;;11.14;42.28
52591;BME280;38483;42.620;25.394;2023-03-31T08:36:09;96753.88;;;11.80;42.15
52591;BME280;38483;42.620;25.394;2023-03-31T08:38:38;96762.16;;;11.86;40.61
52591;BME280;38483;42.620;25.394;2023-03-31T08:43:55;96749.78;;;11.76;40.80
52591;BME280;38483;42.620;25.394;2023-03-31T08:46:26;96734.59;;;11.53;41.41
52591;BME280;38483;42.620;25.394;2023-03-31T08:48:56;96736.63;;;11.48;41.38
52591;BME280;38483;42.620;25.394;2023-03-31T08:51:31;96722.50;;;11.69;41.99
52591;BME280;38483;42.620;25.394;2023-03-31T08:54:04;96718.06;;;12.16;42.09
52591;BME280;38483;42.620;25.394;2023-03-31T08:56:34;96722.09;;;12.21;42.21
52591;BME280;38483;42.620;25.394;2023-03-31T08:59:30;96715.41;;;12.17;42.75
52591;BME280;38483;42.620;25.394;2023-03-31T09:17:52;96669.56;;;13.02;42.84
52591;BME280;38483;42.620;25.394;2023-03-31T09:20:29;96682.22;;;13.37;41.94
52591;BME280;38483;42.620;25.394;2023-03-31T09:25:50;96674.28;;;13.52;41.34
52591;BME280;38483;42.620;25.394;2023-03-31T09:28:20;96685.38;;;13.68;41.48
52591;BME280;38483;42.620;25.394;2023-03-31T09:30:48;96673.47;;;13.78;42.08
52591;BME280;38483;42.620;25.394;2023-03-31T09:35:50;96656.53;;;13.98;41.43
52591;BME280;38483;42.620;25.394;2023-03-31T09:38:18;96645.72;;;14.04;42.00
52591;BME280;38483;42.620;25.394;2023-03-31T09:40:45;96661.28;;;14.18;41.53
52591;BME280;38483;42.620;25.394;2023-03-31T09:43:24;96653.66;;;14.42;40.69
52591;BME280;38483;42.620;25.394;2023-03-31T09:45:52;96657.72;;;14.58;40.39
52591;BME280;38483;42.620;25.394;2023-03-31T09:48:36;96645.94;;;14.65;40.69
52591;BME280;38483;42.620;25.394;2023-03-31T09:51:06;96626.22;;;14.61;40.59
52591;BME280;38483;42.620;25.394;2023-03-31T09:54:12;96642.50;;;14.65;40.95
52591;BME280;38483;42.620;25.394;2023-03-31T09:59:14;96627.19;;;14.60;41.16
52591;BME280;38483;42.620;25.394;2023-03-31T10:01:48;96619.97;;;14.39;41.80
52591;BME280;38483;42.620;25.394;2023-03-31T10:04:20;96616.41;;;14.78;41.96
52591;BME280;38483;42.620;25.394;2023-03-31T10:06:48;96612.28;;;14.75;42.36
52591;BME280;38483;42.620;25.394;2023-03-31T10:09:15;96609.13;;;14.70;42.97
52591;BME280;38483;42.620;25.394;2023-03-31T10:12:02;96606.81;;;14.91;43.31
52591;BME280;38483;42.620;25.394;2023-03-31T10:14:40;96610.25;;;15.04;43.68
52591;BME280;38483;42.620;25.394;2023-03-31T10:17:14;96600.44;;;14.95;43.56
52591;BME280;38483;42.620;25.394;2023-03-31T10:19:51;96593.47;;;14.95;44.08
52591;BME280;38483;42.620;25.394;2023-03-31T10:24:49;96587.41;;;15.31;43.36
52591;BME280;38483;42.620;25.394;2023-03-31T10:27:23;96586.16;;;15.60;42.74
52591;BME280;38483;42.620;25.394;2023-03-31T10:29:52;96574.47;;;15.66;42.94
52591;BME280;38483;42.620;25.394;2023-03-31T10:32:23;96572.03;;;15.52;43.27
52591;BME280;38483;42.620;25.394;2023-03-31T10:34:55;96575.81;;;15.82;43.28
52591;BME280;38483;42.620;25.394;2023-03-31T10:37:25;96563.94;;;16.13;42.47
52591;BME280;38483;42.620;25.394;2023-03-31T10:40:00;96565.91;;;16.09;42.32
52591;BME280;38483;42.620;25.394;2023-03-31T10:42:29;96560.97;;;16.28;42.35
52591;BME280;38483;42.620;25.394;2023-03-31T10:48:01;96533.16;;;16.16;42.70
52591;BME280;38483;42.620;25.394;2023-03-31T10:50:33;96564.31;;;16.19;43.04
52591;BME280;38483;42.620;25.394;2023-03-31T10:53:09;96548.00;;;16.05;43.31
52591;BME280;38483;42.620;25.394;2023-03-31T11:12:22;96532.56;;;16.13;44.65
52591;BME280;38483;42.620;25.394;2023-03-31T11:17:40;96529.97;;;16.24;45.21
52591;BME280;38483;42.620;25.394;2023-03-31T11:23:17;96511.34;;;16.40;44.81
52591;BME280;38483;42.620;25.394;2023-03-31T11:25:59;96513.25;;;16.38;44.98
52591;BME280;38483;42.620;25.394;2023-03-31T11:39:11;96490.00;;;16.57;44.81
52591;BME280;38483;42.620;25.394;2023-03-31T11:41:50;96497.56;;;16.60;44.84
52591;BME280;38483;42.620;25.394;2023-03-31T11:44:21;96491.16;;;16.64;45.27
52591;BME280;38483;42.620;25.394;2023-03-31T11:47:00;96484.16;;;16.64;45.38
52591;BME280;38483;42.620;25.394;2023-03-31T11:49:31;96467.63;;;16.53;45.35
52591;BME280;38483;42.620;25.394;2023-03-31T11:52:18;96479.00;;;16.85;44.94
52591;BME280;38483;42.620;25.394;2023-03-31T12:00:10;96451.16;;;16.95;44.24
52591;BME280;38483;42.620;25.394;2023-03-31T12:03:03;96465.56;;;17.21;44.12
52591;BME280;38483;42.620;25.394;2023-03-31T12:05:41;96478.81;;;17.08;44.45
52591;BME280;38483;42.620;25.394;2023-03-31T12:14:00;96449.00;;;17.32;44.20
52591;BME280;38483;42.620;25.394;2023-03-31T12:17:01;96439.41;;;17.21;44.28
52591;BME280;38483;42.620;25.394;2023-03-31T12:19:44;96438.16;;;17.36;43.73
52591;BME280;38483;42.620;25.394;2023-03-31T12:24:44;96431.00;;;17.38;43.07
52591;BME280;38483;42.620;25.394;2023-03-31T12:30:02;96419.38;;;17.31;43.20
52591;BME280;38483;42.620;25.394;2023-03-31T12:32:33;96436.81;;;17.42;42.94
52591;BME280;38483;42.620;25.394;2023-03-31T12:43:13;96423.16;;;17.49;42.74
52591;BME280;38483;42.620;25.394;2023-03-31T12:46:16;96426.25;;;17.43;43.23
52591;BME280;38483;42.620;25.394;2023-03-31T12:49:28;96430.78;;;17.41;43.07
52591;BME280;38483;42.620;25.394;2023-03-31T12:52:08;96428.19;;;17.30;43.60
52591;BME280;38483;42.620;25.394;2023-03-31T12:57:24;96423.28;;;17.37;43.41
52591;BME280;38483;42.620;25.394;2023-03-31T13:02:38;96413.41;;;17.40;43.47
52591;BME280;38483;42.620;25.394;2023-03-31T13:08:08;96408.34;;;17.59;43.24
52591;BME280;38483;42.620;25.394;2023-03-31T13:10:55;96397.06;;;17.68;42.84
52591;BME280;38483;42.620;25.394;2023-03-31T13:13:24;96400.91;;;17.64;43.03
52591;BME280;38483;42.620;25.394;2023-03-31T13:15:54;96398.88;;;17.68;43.02
52591;BME280;38483;42.620;25.394;2023-03-31T13:18:22;96378.94;;;17.56;43.20
52591;BME280;38483;42.620;25.394;2023-03-31T13:21:00;96386.88;;;17.65;43.19
52591;BME280;38483;42.620;25.394;2023-03-31T13:23:35;96374.72;;;17.64;43.04
52591;BME280;38483;42.620;25.394;2023-03-31T13:26:47;96370.50;;;17.73;43.26
52591;BME280;38483;42.620;25.394;2023-03-31T13:34:33;96366.03;;;17.84;42.57
52591;BME280;38483;42.620;25.394;2023-03-31T13:39:51;96368.22;;;17.89;43.30
52591;BME280;38483;42.620;25.394;2023-03-31T14:08:23;96333.06;;;17.92;42.59
52591;BME280;38483;42.620;25.394;2023-03-31T14:11:17;96332.16;;;18.02;42.76
52591;BME280;38483;42.620;25.394;2023-03-31T14:14:12;96337.94;;;17.04;45.52
52591;BME280;38483;42.620;25.394;2023-03-31T14:16:54;96328.56;;;17.01;45.29
52591;BME280;38483;42.620;25.394;2023-03-31T14:24:57;96328.09;;;16.00;47.13
52591;BME280;38483;42.620;25.394;2023-03-31T14:33:21;96337.00;;;16.08;47.42
52591;BME280;38483;42.620;25.394;2023-03-31T14:36:14;96332.13;;;16.15;47.37
52591;BME280;38483;42.620;25.394;2023-03-31T14:38:47;96329.66;;;16.13;47.49
52591;BME280;38483;42.620;25.394;2023-03-31T14:41:18;96308.03;;;16.00;47.12
52591;BME280;38483;42.620;25.394;2023-03-31T14:43:48;96320.84;;;16.25;46.76
52591;BME280;38483;42.620;25.394;2023-03-31T14:46:20;96323.69;;;16.22;47.08
52591;BME280;38483;42.620;25.394;2023-03-31T14:48:50;96322.25;;;16.29;46.72
52591;BME280;38483;42.620;25.394;2023-03-31T14:51:25;96322.91;;;16.54;46.71
52591;BME280;38483;42.620;25.394;2023-03-31T14:53:59;96321.59;;;16.59;46.24
52591;BME280;38483;42.620;25.394;2023-03-31T14:56:31;96308.91;;;16.55;46.05
52591;BME280;38483;42.620;25.394;2023-03-31T14:59:01;96314.38;;;16.52;46.05
52591;BME280;38483;42.620;25.394;2023-03-31T15:01:31;96312.53;;;16.63;46.15
52591;BME280;38483;42.620;25.394;2023-03-31T15:04:11;96323.34;;;16.70;45.85
52591;BME280;38483;42.620;25.394;2023-03-31T15:06:40;96315.91;;;16.43;46.21
52591;BME280;38483;42.620;25.394;2023-03-31T15:09:12;96316.31;;;16.70;45.86
52591;BME280;38483;42.620;25.394;2023-03-31T15:11:43;96308.09;;;16.75;45.95
52591;BME280;38483;42.620;25.394;2023-03-31T15:14:11;96305.72;;;16.72;45.85
52591;BME280;38483;42.620;25.394;2023-03-31T15:16:43;96311.44;;;16.77;46.02
52591;BME280;38483;42.620;25.394;2023-03-31T15:19:18;96321.53;;;16.81;45.57
52591;BME280;38483;42.620;25.394;2023-03-31T15:21:53;96310.28;;;16.90;45.64
52591;BME280;38483;42.620;25.394;2023-03-31T15:24:21;96305.22;;;16.78;45.98
52591;BME280;38483;42.620;25.394;2023-03-31T15:26:54;96311.06;;;16.81;46.12
52591;BME280;38483;42.620;25.394;2023-03-31T15:29:35;96306.63;;;16.82;45.63
52591;BME280;38483;42.620;25.394;2023-03-31T15:32:13;96305.88;;;16.91;45.66
52591;BME280;38483;42.620;25.394;2023-03-31T15:34:42;96316.69;;;16.97;45.66
52591;BME280;38483;42.620;25.394;2023-03-31T15:37:09;96315.00;;;16.96;45.67
52591;BME280;38483;42.620;25.394;2023-03-31T15:39:37;96303.06;;;16.83;46.48
52591;BME280;38483;42.620;25.394;2023-03-31T15:42:06;96320.03;;;16.88;46.28
52591;BME280;38483;42.620;25.394;2023-03-31T15:44:37;96314.75;;;16.79;46.90
52591;BME280;38483;42.620;25.394;2023-03-31T15:47:23;96304.59;;;16.65;47.30
52591;BME280;38483;42.620;25.394;2023-03-31T15:49:57;96306.72;;;16.60;47.19
52591;BME280;38483;42.620;25.394;2023-03-31T15:52:34;96304.50;;;16.55;47.62
52591;BME280;38483;42.620;25.394;2023-03-31T15:55:30;96303.78;;;16.53;47.45
52591;BME280;38483;42.620;25.394;2023-03-31T15:58:00;96307.38;;;16.52;47.56
52591;BME280;38483;42.620;25.394;2023-03-31T16:02:58;96305.75;;;16.18;48.34
52591;BME280;38483;42.620;25.394;2023-03-31T16:05:41;96313.28;;;16.11;48.44
52591;BME280;38483;42.620;25.394;2023-03-31T16:08:27;96315.53;;;16.05;48.57
52591;BME280;38483;42.620;25.394;2023-03-31T16:11:03;96299.03;;;15.93;49.23
52591;BME280;38483;42.620;25.394;2023-03-31T16:13:34;96283.38;;;15.71;49.32
52591;BME280;38483;42.620;25.394;2023-03-31T16:16:07;96295.47;;;15.83;49.50
52591;BME280;38483;42.620;25.394;2023-03-31T16:18:39;96305.94;;;15.61;49.52